createdAt,value
2022-08-11T00:01:21.819Z,17.43
2022-08-11T00:03:56.786Z,17.39
2022-08-11T00:06:30.447Z,17.34
2022-08-11T00:09:02.110Z,17.40
2022-08-11T00:11:37.711Z,17.33
2022-08-11T00:14:19.287Z,17.24
2022-08-11T00:17:03.925Z,17.17
2022-08-11T00:20:12.252Z,17.24
2022-08-11T00:22:30.121Z,17.37
2022-08-11T00:25:02.674Z,17.32
2022-08-11T00:27:38.027Z,17.15
2022-08-11T00:30:12.237Z,17.13
2022-08-11T00:32:44.906Z,17.07
2022-08-11T00:35:54.046Z,17.03
2022-08-11T00:38:16.286Z,16.95
2022-08-11T00:40:56.509Z,16.91
2022-08-11T00:43:49.262Z,17.04
2022-08-11T00:46:40.099Z,17.11
2022-08-11T00:49:23.014Z,16.93
2022-08-11T00:52:14.783Z,16.84
2022-08-11T00:56:11.747Z,16.83
2022-08-11T00:59:34.306Z,16.96
2022-08-11T01:02:48.505Z,16.89
2022-08-11T01:05:51.717Z,16.74
2022-08-11T01:09:21.926Z,16.66
2022-08-11T01:12:36.047Z,16.60
2022-08-11T01:15:59.598Z,16.56
2022-08-11T01:20:47.915Z,16.52
2022-08-11T01:23:50.218Z,16.50
2022-08-11T01:27:20.010Z,16.41
2022-08-11T01:30:49.207Z,16.39
2022-08-11T01:34:32.653Z,16.35
2022-08-11T01:37:31.631Z,16.30
2022-08-11T01:40:58.373Z,16.36
2022-08-11T01:44:38.813Z,16.44
2022-08-11T01:47:53.090Z,16.32
2022-08-11T01:50:47.694Z,16.23
2022-08-11T01:53:40.110Z,16.19
2022-08-11T01:56:30.981Z,16.13
2022-08-11T01:59:17.659Z,16.20
2022-08-11T02:02:21.533Z,16.21
2022-08-11T02:05:00.965Z,16.10
2022-08-11T02:07:37.531Z,16.14
2022-08-11T02:10:42.317Z,16.07
2022-08-11T02:13:38.395Z,16.06
2022-08-11T02:16:34.543Z,16.15
2022-08-11T02:19:39.659Z,16.08
2022-08-11T02:22:36.386Z,15.97
2022-08-11T02:25:13.855Z,15.93
2022-08-11T02:27:54.671Z,15.88
2022-08-11T02:30:32.653Z,15.88
2022-08-11T02:33:23.307Z,15.84
2022-08-11T02:36:04.777Z,15.93
2022-08-11T02:38:43.537Z,15.93
2022-08-11T02:41:43.309Z,15.79
2022-08-11T02:44:31.223Z,15.75
2022-08-11T02:47:14.637Z,15.79
2022-08-11T02:50:03.458Z,15.74
2022-08-11T02:52:46.582Z,15.73
2022-08-11T02:55:56.485Z,15.65
2022-08-11T02:58:37.948Z,15.73
2022-08-11T03:01:18.719Z,15.78
2022-08-11T03:04:02.062Z,15.67
2022-08-11T03:06:40.119Z,15.54
2022-08-11T03:09:20.446Z,15.58
2022-08-11T03:12:24.560Z,15.58
2022-08-11T03:15:21.348Z,15.43
2022-08-11T03:18:05.575Z,15.43
2022-08-11T03:20:46.591Z,15.44
2022-08-11T03:23:30.952Z,15.51
2022-08-11T03:26:11.148Z,15.35
2022-08-11T03:28:52.946Z,15.46
2022-08-11T03:31:32.139Z,15.48
2022-08-11T03:34:08.380Z,15.46
2022-08-11T03:37:47.355Z,15.43
2022-08-11T03:40:55.006Z,15.40
2022-08-11T03:43:58.600Z,15.35
2022-08-11T03:46:52.835Z,15.33
2022-08-11T03:49:39.356Z,15.31
2022-08-11T03:52:22.850Z,15.22
2022-08-11T03:55:05.624Z,15.24
2022-08-11T03:58:46.194Z,15.16
2022-08-11T04:02:04.959Z,15.17
2022-08-11T04:05:42.535Z,15.25
2022-08-11T04:09:16.934Z,15.15
2022-08-11T04:12:45.618Z,15.06
2022-08-11T04:16:11.598Z,15.12
2022-08-11T04:19:49.877Z,15.09
2022-08-11T04:22:51.351Z,15.02
2022-08-11T04:25:58.057Z,14.98
2022-08-11T04:29:15.239Z,15.00
2022-08-11T04:32:05.951Z,15.07
2022-08-11T04:35:18.853Z,15.03
2022-08-11T04:38:34.073Z,14.99
2022-08-11T04:42:09.887Z,15.02
2022-08-11T04:45:36.254Z,14.95
2022-08-11T04:49:06.568Z,15.02
2022-08-11T04:52:38.283Z,15.05
2022-08-11T04:56:03.416Z,15.02
2022-08-11T04:59:27.463Z,15.10
2022-08-11T05:03:00.093Z,15.14
2022-08-11T05:06:07.922Z,15.18
2022-08-11T05:09:25.233Z,15.19
2022-08-11T05:12:27.231Z,15.25
2022-08-11T05:15:16.268Z,15.21
2022-08-11T05:18:15.710Z,15.18
2022-08-11T05:21:09.734Z,15.29
2022-08-11T05:24:02.522Z,15.25
2022-08-11T05:27:02.132Z,15.27
2022-08-11T05:30:01.634Z,15.36
2022-08-11T05:33:00.984Z,15.40
2022-08-11T05:36:00.590Z,15.44
2022-08-11T05:38:51.847Z,15.50
2022-08-11T05:41:42.371Z,15.57
2022-08-11T05:44:37.405Z,15.61
2022-08-11T05:47:25.111Z,15.68
2022-08-11T05:50:13.565Z,15.74
2022-08-11T05:53:09.340Z,15.84
2022-08-11T05:56:02.480Z,15.90
2022-08-11T05:58:42.319Z,16.00
2022-08-11T06:01:15.793Z,16.12
2022-08-11T06:04:04.463Z,16.21
2022-08-11T06:06:33.992Z,16.34
2022-08-11T06:09:03.794Z,16.45
2022-08-11T06:11:44.168Z,16.57
2022-08-11T06:14:16.643Z,16.67
2022-08-11T06:16:52.043Z,16.77
2022-08-11T06:19:25.014Z,16.87
2022-08-11T06:21:55.842Z,16.98
2022-08-11T06:24:25.168Z,17.07
2022-08-11T06:27:13.546Z,17.17
2022-08-11T06:29:54.716Z,17.29
2022-08-11T06:32:30.396Z,17.41
2022-08-11T06:35:23.354Z,17.53
2022-08-11T06:38:16.320Z,17.63
2022-08-11T06:41:09.694Z,17.75
2022-08-11T06:43:55.198Z,17.88
2022-08-11T06:46:31.796Z,18.01
2022-08-11T06:49:04.815Z,18.15
2022-08-11T06:51:37.269Z,18.26
2022-08-11T06:54:14.824Z,18.42
2022-08-11T06:57:28.328Z,18.55
2022-08-11T07:00:10.149Z,18.70
2022-08-11T07:02:49.719Z,18.84
2022-08-11T07:05:28.467Z,18.95
2022-08-11T07:09:04.034Z,19.10
2022-08-11T07:12:52.322Z,19.28
2022-08-11T07:16:10.667Z,19.39
2022-08-11T07:18:54.849Z,19.56
2022-08-11T07:22:01.794Z,19.73
2022-08-11T07:24:59.316Z,19.91
2022-08-11T07:28:04.248Z,20.10
2022-08-11T07:30:40.436Z,20.24
2022-08-11T07:33:19.022Z,20.42
2022-08-11T07:36:04.707Z,20.56
2022-08-11T07:38:46.066Z,20.71
2022-08-11T07:41:18.536Z,20.84
2022-08-11T07:43:51.670Z,20.96
2022-08-11T07:46:39.303Z,21.03
2022-08-11T07:49:28.600Z,21.18
2022-08-11T07:52:15.342Z,21.33
2022-08-11T07:54:51.158Z,21.50
2022-08-11T07:58:13.833Z,21.62
2022-08-11T08:00:51.645Z,21.81
2022-08-11T08:03:39.527Z,21.98
2022-08-11T08:06:41.695Z,22.11
2022-08-11T08:09:30.728Z,22.19
2022-08-11T08:12:22.380Z,22.21
2022-08-11T08:15:09.814Z,22.34
2022-08-11T08:18:10.070Z,22.49
2022-08-11T08:20:50.758Z,22.68
2022-08-11T08:23:33.436Z,22.75
2022-08-11T08:26:05.581Z,22.84
2022-08-11T08:28:36.475Z,22.86
2022-08-11T08:31:05.032Z,22.95
2022-08-11T08:33:34.463Z,22.97
2022-08-11T08:36:14.856Z,22.94
2022-08-11T08:38:50.398Z,22.93
2022-08-11T08:41:24.353Z,23.13
2022-08-11T08:44:27.366Z,23.28
2022-08-11T08:46:55.505Z,23.46
2022-08-11T08:49:33.642Z,23.65
2022-08-11T08:52:25.346Z,23.75
2022-08-11T08:55:05.649Z,23.80
2022-08-11T08:57:39.591Z,23.97
2022-08-11T09:00:12.495Z,24.19
2022-08-11T09:02:46.113Z,24.27
2022-08-11T09:05:18.551Z,24.42
2022-08-11T09:07:51.592Z,24.50
2022-08-11T09:10:22.904Z,24.67
2022-08-11T09:12:53.112Z,24.81
2022-08-11T09:15:26.193Z,24.69
2022-08-11T09:18:06.127Z,24.68
2022-08-11T09:20:37.483Z,24.82
2022-08-11T09:24:08.930Z,24.78
2022-08-11T09:26:34.970Z,24.64
2022-08-11T09:29:05.558Z,24.88
2022-08-11T09:31:40.146Z,24.94
2022-08-11T09:34:11.687Z,24.80
2022-08-11T09:37:02.170Z,24.66
2022-08-11T09:39:51.215Z,24.80
2022-08-11T09:42:23.951Z,24.76
2022-08-11T09:44:53.842Z,24.56
2022-08-11T09:47:29.690Z,24.52
2022-08-11T09:50:02.459Z,24.55
2022-08-11T09:52:37.171Z,24.79
2022-08-11T09:55:11.370Z,24.99
2022-08-11T09:58:00.127Z,25.05
2022-08-11T10:00:37.376Z,24.91
2022-08-11T10:03:13.812Z,25.12
2022-08-11T10:06:08.264Z,25.77
2022-08-11T10:08:41.992Z,26.24
2022-08-11T10:11:15.547Z,26.53
2022-08-11T10:14:31.430Z,26.65
2022-08-11T10:16:54.839Z,26.98
2022-08-11T10:19:26.277Z,27.39
2022-08-11T10:22:14.182Z,27.67
2022-08-11T10:28:29.010Z,28.18
2022-08-11T10:31:22.519Z,28.57
2022-08-11T10:34:04.002Z,28.87
2022-08-11T10:36:43.060Z,28.81
2022-08-11T10:39:18.248Z,28.80
2022-08-11T10:42:12.249Z,28.50
2022-08-11T10:44:47.199Z,28.43
2022-08-11T10:47:35.003Z,28.48
2022-08-11T10:50:26.427Z,28.29
2022-08-11T10:53:17.989Z,28.05
2022-08-11T10:56:06.345Z,28.18
2022-08-11T10:58:48.665Z,28.35
2022-08-11T11:01:28.591Z,28.34
2022-08-11T11:04:02.474Z,28.12
2022-08-11T11:06:44.943Z,27.98
2022-08-11T11:09:20.704Z,27.92
2022-08-11T11:12:12.537Z,28.16
2022-08-11T11:15:02.810Z,28.15
2022-08-11T11:17:57.749Z,28.35
2022-08-11T11:20:36.489Z,28.72
2022-08-11T11:23:13.669Z,28.74
2022-08-11T11:26:10.403Z,29.04
2022-08-11T11:29:22.542Z,29.11
2022-08-11T11:32:17.821Z,29.31
2022-08-11T11:35:32.084Z,29.87
2022-08-11T11:38:04.886Z,30.23
2022-08-11T11:40:37.557Z,30.29
2022-08-11T11:43:08.602Z,30.43
2022-08-11T11:45:38.071Z,30.69
2022-08-11T11:48:07.761Z,30.73
2022-08-11T11:50:39.440Z,30.89
2022-08-11T11:53:11.241Z,30.79
2022-08-11T11:55:40.608Z,30.56
2022-08-11T11:58:28.600Z,30.48
2022-08-11T12:01:17.664Z,30.32
2022-08-11T12:03:51.342Z,30.25
2022-08-11T12:06:25.427Z,30.30
2022-08-11T12:08:58.968Z,30.37
2022-08-11T12:11:48.103Z,30.43
2022-08-11T12:14:22.583Z,30.48
2022-08-11T12:16:52.001Z,30.57
2022-08-11T12:19:26.311Z,30.39
2022-08-11T12:22:15.961Z,30.36
2022-08-11T12:25:04.672Z,30.26
2022-08-11T12:27:33.672Z,30.35
2022-08-11T12:30:10.903Z,30.39
2022-08-11T12:32:42.242Z,30.40
2022-08-11T12:35:11.681Z,30.28
2022-08-11T12:37:45.937Z,30.40
2022-08-11T12:41:03.466Z,30.27
2022-08-11T12:43:57.137Z,30.11
2022-08-11T12:46:34.124Z,29.97
2022-08-11T12:49:31.087Z,30.13
2022-08-11T12:52:12.927Z,30.30
2022-08-11T12:54:52.838Z,29.97
2022-08-11T12:57:47.721Z,29.63
2022-08-11T13:00:36.361Z,29.33
2022-08-11T13:03:28.962Z,29.54
2022-08-11T13:06:00.148Z,29.85
2022-08-11T13:08:32.775Z,30.15
2022-08-11T13:11:21.503Z,30.39
2022-08-11T13:13:57.726Z,30.54
2022-08-11T13:16:31.993Z,30.44
2022-08-11T13:19:02.864Z,30.44
2022-08-11T13:21:32.891Z,30.33
2022-08-11T13:24:03.823Z,30.27
2022-08-11T13:26:47.772Z,30.35
2022-08-11T13:29:24.289Z,30.55
2022-08-11T13:31:57.058Z,30.32
2022-08-11T13:34:31.546Z,30.06
2022-08-11T13:37:05.385Z,30.11
2022-08-11T13:39:37.333Z,30.26
2022-08-11T13:42:07.652Z,30.51
2022-08-11T13:44:40.029Z,31.23
2022-08-11T13:47:13.227Z,31.82
2022-08-11T13:49:45.838Z,32.46
2022-08-11T13:52:17.996Z,32.92
2022-08-11T13:54:53.565Z,33.14
2022-08-11T13:58:09.072Z,33.47
2022-08-11T14:00:27.712Z,34.26
2022-08-11T14:02:59.424Z,34.72
2022-08-11T14:05:35.450Z,34.53
2022-08-11T14:08:38.086Z,35.20
2022-08-11T14:12:23.071Z,36.11
2022-08-11T14:14:27.668Z,36.60
2022-08-11T14:16:58.939Z,37.18
2022-08-11T14:19:30.542Z,37.63
2022-08-11T14:22:08.112Z,38.39
2022-08-11T14:24:41.130Z,39.02
2022-08-11T14:28:15.411Z,38.94
2022-08-11T14:30:02.819Z,39.42
2022-08-11T14:32:32.544Z,39.51
2022-08-11T14:35:03.339Z,39.26
2022-08-11T14:37:33.656Z,39.57
2022-08-11T14:40:24.144Z,39.97
2022-08-11T14:43:19.771Z,40.14
2022-08-11T14:46:26.695Z,40.38
2022-08-11T14:48:55.823Z,40.10
2022-08-11T14:51:25.340Z,39.22
2022-08-11T14:54:16.220Z,37.86
2022-08-11T14:56:44.929Z,36.47
2022-08-11T14:59:15.310Z,35.67
2022-08-11T15:02:03.065Z,35.09
2022-08-11T15:04:36.122Z,34.56
2022-08-11T15:07:16.660Z,34.27
2022-08-11T15:12:41.982Z,33.32
2022-08-11T15:15:30.222Z,32.81
2022-08-11T15:18:04.358Z,32.54
2022-08-11T15:20:53.818Z,32.15
2022-08-11T15:23:40.477Z,31.85
2022-08-11T15:26:17.221Z,31.51
2022-08-11T15:29:08.725Z,31.21
2022-08-11T15:31:57.618Z,31.12
2022-08-11T15:34:47.826Z,31.02
2022-08-11T15:37:31.549Z,30.77
2022-08-11T15:40:34.536Z,30.61
2022-08-11T15:43:32.253Z,30.62
2022-08-11T15:46:10.818Z,30.18
2022-08-11T15:48:48.508Z,29.86
2022-08-11T15:51:29.003Z,30.00
2022-08-11T15:54:08.560Z,30.11
2022-08-11T15:56:43.906Z,30.13
2022-08-11T15:59:41.870Z,30.06
2022-08-11T16:02:33.691Z,29.95
2022-08-11T16:05:08.115Z,29.66
2022-08-11T16:07:40.645Z,29.53
2022-08-11T16:10:19.094Z,29.45
2022-08-11T16:13:23.707Z,29.36
2022-08-11T16:16:15.568Z,29.35
2022-08-11T16:18:52.654Z,29.13
2022-08-11T16:21:34.638Z,29.12
2022-08-11T16:24:09.474Z,29.00
2022-08-11T16:27:10.505Z,28.97
2022-08-11T16:29:47.896Z,28.89
2022-08-11T16:32:23.678Z,28.68
2022-08-11T16:35:16.134Z,28.67
2022-08-11T16:38:06.571Z,28.57
2022-08-11T16:40:36.916Z,28.38
2022-08-11T16:43:27.685Z,28.45
2022-08-11T16:46:15.630Z,28.42
2022-08-11T16:48:50.634Z,28.43
2022-08-11T16:51:20.973Z,28.40
2022-08-11T16:54:04.339Z,28.38
2022-08-11T16:56:43.065Z,28.31
2022-08-11T16:59:19.966Z,28.22
2022-08-11T17:01:54.253Z,28.15
2022-08-11T17:04:54.880Z,28.15
2022-08-11T17:07:44.282Z,28.10
2022-08-11T17:10:53.396Z,28.05
2022-08-11T17:13:36.587Z,28.00
2022-08-11T17:16:12.716Z,27.98
2022-08-11T17:18:59.257Z,27.94
2022-08-11T17:21:35.067Z,27.93
2022-08-11T17:24:09.441Z,27.88
2022-08-11T17:26:57.130Z,27.85
2022-08-11T17:29:30.648Z,27.75
2022-08-11T17:32:21.112Z,27.74
2022-08-11T17:35:11.178Z,27.71
2022-08-11T17:37:44.263Z,27.66
2022-08-11T17:40:18.638Z,27.57
2022-08-11T17:43:05.794Z,27.55
2022-08-11T17:45:56.578Z,27.48
2022-08-11T17:48:27.999Z,27.40
2022-08-11T17:51:00.424Z,27.31
2022-08-11T17:54:13.424Z,27.25
2022-08-11T17:57:00.079Z,27.19
2022-08-11T17:59:49.304Z,27.12
2022-08-11T18:02:40.428Z,27.04
2022-08-11T18:05:13.530Z,26.91
2022-08-11T18:08:04.327Z,26.78
2022-08-11T18:10:54.294Z,26.69
2022-08-11T18:13:43.660Z,26.59
2022-08-11T18:16:30.979Z,26.42
2022-08-11T18:19:18.099Z,26.37
2022-08-11T18:22:14.959Z,26.24
2022-08-11T18:25:08.964Z,26.06
2022-08-11T18:28:02.962Z,25.83
2022-08-11T18:31:03.458Z,25.74
2022-08-11T18:34:14.250Z,25.57
2022-08-11T18:37:05.958Z,25.35
2022-08-11T18:40:00.746Z,25.37
2022-08-11T18:42:51.461Z,25.16
2022-08-11T18:45:45.641Z,25.05
2022-08-11T18:48:39.677Z,24.97
2022-08-11T18:51:30.897Z,24.86
2022-08-11T18:54:28.927Z,24.81
2022-08-11T18:57:21.289Z,24.76
2022-08-11T19:00:10.910Z,24.54
2022-08-11T19:03:00.364Z,24.36
2022-08-11T19:06:06.127Z,24.25
2022-08-11T19:09:05.245Z,24.08
2022-08-11T19:11:53.534Z,23.95
2022-08-11T19:14:43.884Z,23.89
2022-08-11T19:17:44.587Z,23.69
2022-08-11T19:20:38.247Z,23.72
2022-08-11T19:23:29.186Z,23.66
2022-08-11T19:26:17.390Z,23.51
2022-08-11T19:29:07.432Z,23.40
2022-08-11T19:31:55.744Z,23.28
2022-08-11T19:34:43.963Z,23.16
2022-08-11T19:37:32.177Z,23.10
2022-08-11T19:40:24.085Z,23.19
2022-08-11T19:43:18.778Z,23.07
2022-08-11T19:46:17.528Z,22.86
2022-08-11T19:49:08.410Z,22.68
2022-08-11T19:51:56.776Z,22.60
2022-08-11T19:54:48.711Z,22.50
2022-08-11T19:57:39.927Z,22.48
2022-08-11T20:00:31.826Z,22.38
2022-08-11T20:03:19.520Z,22.24
2022-08-11T20:06:07.416Z,22.24
2022-08-11T20:08:59.096Z,22.13
2022-08-11T20:11:51.846Z,22.23
2022-08-11T20:14:41.385Z,22.01
2022-08-11T20:17:31.135Z,21.87
2022-08-11T20:20:20.487Z,21.75
2022-08-11T20:23:09.537Z,21.77
2022-08-11T20:26:08.564Z,21.61
2022-08-11T20:29:09.121Z,21.60
2022-08-11T20:31:57.108Z,21.58
2022-08-11T20:34:43.890Z,21.42
2022-08-11T20:37:31.980Z,21.32
2022-08-11T20:40:23.866Z,21.21
2022-08-11T20:44:04.974Z,21.14
2022-08-11T20:46:21.369Z,21.03
2022-08-11T20:49:10.399Z,21.02
2022-08-11T20:52:01.081Z,21.01
2022-08-11T20:54:54.709Z,20.89
2022-08-11T20:58:00.163Z,20.77
2022-08-11T21:00:50.979Z,20.68
2022-08-11T21:03:45.265Z,20.61
2022-08-11T21:06:46.178Z,20.68
2022-08-11T21:12:43.260Z,20.46
2022-08-11T21:15:47.197Z,20.27
2022-08-11T21:18:41.843Z,20.34
2022-08-11T21:21:45.391Z,20.19
2022-08-11T21:24:37.145Z,20.12
2022-08-11T21:27:34.018Z,19.98
2022-08-11T21:30:22.523Z,19.88
2022-08-11T21:33:10.359Z,19.86
2022-08-11T21:35:58.657Z,19.85
2022-08-11T21:38:48.041Z,19.79
2022-08-11T21:41:36.349Z,19.73
2022-08-11T21:44:26.644Z,19.63
2022-08-11T21:47:21.038Z,19.54
2022-08-11T21:50:22.515Z,19.48
2022-08-11T21:53:11.232Z,19.43
2022-08-11T21:55:58.815Z,19.46
2022-08-11T21:58:45.789Z,19.31
2022-08-11T22:01:34.443Z,19.30
2022-08-11T22:04:22.666Z,19.18
2022-08-11T22:07:10.054Z,19.09
2022-08-11T22:09:58.412Z,19.03
2022-08-11T22:12:45.471Z,18.98
2022-08-11T22:15:31.901Z,19.03
2022-08-11T22:18:20.444Z,19.08
2022-08-11T22:21:09.370Z,18.99
2022-08-11T22:24:02.617Z,18.93
2022-08-11T22:26:54.825Z,19.02
2022-08-11T22:29:51.208Z,19.13
2022-08-11T22:32:42.031Z,18.89
2022-08-11T22:35:30.320Z,18.78
2022-08-11T22:38:18.565Z,18.63
2022-08-11T22:41:05.222Z,18.49
2022-08-11T22:43:53.133Z,18.41
2022-08-11T22:46:41.296Z,18.44
2022-08-11T22:49:30.565Z,18.37
2022-08-11T22:52:40.536Z,18.28
2022-08-11T22:55:28.894Z,18.40
2022-08-11T22:58:16.080Z,18.58
2022-08-11T23:01:04.395Z,18.42
2022-08-11T23:03:52.147Z,18.27
2022-08-11T23:06:40.302Z,18.26
2022-08-11T23:09:27.591Z,18.30
2022-08-11T23:12:16.197Z,18.15
2022-08-11T23:15:03.633Z,18.04
2022-08-11T23:17:51.486Z,18.04
2022-08-11T23:20:41.654Z,17.84
2022-08-11T23:23:35.959Z,17.85
2022-08-11T23:26:23.298Z,17.79
2022-08-11T23:29:11.411Z,17.89
2022-08-11T23:31:58.594Z,17.85
2022-08-11T23:35:04.043Z,17.67
2022-08-11T23:38:00.193Z,17.68
2022-08-11T23:40:46.855Z,17.71
2022-08-11T23:43:38.868Z,17.66
2022-08-11T23:46:25.493Z,17.50
2022-08-11T23:49:17.836Z,17.55
2022-08-11T23:52:07.666Z,17.56
2022-08-11T23:54:54.933Z,17.42
2022-08-11T23:57:47.985Z,17.32
